createdAt,value
2023-04-23T00:01:28.123Z,94.30
2023-04-23T00:03:58.896Z,94.20
2023-04-23T00:06:27.781Z,94.40
2023-04-23T00:08:56.467Z,94.60
2023-04-23T00:11:24.804Z,94.60
2023-04-23T00:13:54.842Z,94.40
2023-04-23T00:16:24.606Z,94.50
2023-04-23T00:18:52.818Z,94.60
2023-04-23T00:21:20.858Z,94.60
2023-04-23T00:23:48.807Z,94.60
2023-04-23T00:26:18.613Z,94.60
2023-04-23T00:28:46.602Z,94.40
2023-04-23T00:31:15.956Z,94.40
2023-04-23T00:33:44.066Z,94.70
2023-04-23T00:36:12.022Z,94.90
2023-04-23T00:38:40.086Z,94.90
2023-04-23T00:41:08.549Z,94.80
2023-04-23T00:43:36.693Z,94.80
2023-04-23T00:46:05.172Z,94.90
2023-04-23T00:48:35.455Z,94.90
2023-04-23T00:51:06.166Z,95.00
2023-04-23T00:53:34.656Z,94.90
2023-04-23T00:56:05.162Z,95.30
2023-04-23T00:58:33.607Z,95.70
2023-04-23T01:01:02.919Z,96.00
2023-04-23T01:03:31.709Z,96.30
2023-04-23T01:06:01.496Z,96.40
2023-04-23T01:08:31.038Z,96.60
2023-04-23T01:10:59.740Z,96.80
2023-04-23T01:13:29.765Z,96.90
2023-04-23T01:15:58.262Z,97.00
2023-04-23T01:18:26.901Z,97.00
2023-04-23T01:20:55.071Z,96.90
2023-04-23T01:23:24.471Z,96.60
2023-04-23T01:25:52.494Z,96.60
2023-04-23T01:28:20.754Z,97.20
2023-04-23T01:30:49.415Z,97.60
2023-04-23T01:33:17.691Z,97.80
2023-04-23T01:35:46.295Z,97.70
2023-04-23T01:38:15.868Z,97.60
2023-04-23T01:40:45.564Z,97.40
2023-04-23T01:43:13.894Z,97.30
2023-04-23T01:45:42.583Z,97.70
2023-04-23T01:48:11.112Z,97.70
2023-04-23T01:50:39.712Z,98.00
2023-04-23T01:53:07.625Z,97.20
2023-04-23T01:55:38.992Z,97.20
2023-04-23T01:58:08.448Z,97.10
2023-04-23T02:00:36.945Z,97.40
2023-04-23T02:03:05.192Z,97.60
2023-04-23T02:05:36.387Z,97.50
2023-04-23T02:08:04.792Z,97.10
2023-04-23T02:10:32.981Z,97.40
2023-04-23T02:13:02.227Z,97.90
2023-04-23T02:15:32.602Z,97.70
2023-04-23T02:18:00.763Z,97.70
2023-04-23T02:20:28.742Z,97.60
2023-04-23T02:22:57.334Z,97.90
2023-04-23T02:25:25.333Z,98.00
2023-04-23T02:27:53.353Z,98.00
2023-04-23T02:30:22.841Z,98.00
2023-04-23T02:32:52.270Z,97.90
2023-04-23T02:35:21.218Z,97.60
2023-04-23T02:37:49.238Z,97.30
2023-04-23T02:40:17.186Z,97.40
2023-04-23T02:42:45.204Z,97.40
2023-04-23T02:45:13.251Z,97.40
2023-04-23T02:47:41.316Z,97.50
2023-04-23T02:50:11.400Z,97.60
2023-04-23T02:52:39.377Z,97.50
2023-04-23T02:55:09.058Z,97.50
2023-04-23T02:57:37.120Z,97.30
2023-04-23T03:00:07.027Z,97.70
2023-04-23T03:02:35.140Z,97.70
2023-04-23T03:05:03.224Z,97.70
2023-04-23T03:07:32.739Z,98.00
2023-04-23T03:10:00.692Z,97.80
2023-04-23T03:12:28.638Z,98.20
2023-04-23T03:14:56.677Z,98.10
2023-04-23T03:17:24.676Z,97.70
2023-04-23T03:19:52.715Z,97.60
2023-04-23T03:22:20.750Z,97.90
2023-04-23T03:24:50.043Z,97.50
2023-04-23T03:27:18.009Z,97.60
2023-04-23T03:29:46.531Z,97.70
2023-04-23T03:32:14.478Z,98.00
2023-04-23T03:34:42.635Z,97.80
2023-04-23T03:37:10.852Z,97.50
2023-04-23T03:39:38.797Z,98.10
2023-04-23T03:42:08.191Z,98.10
2023-04-23T03:44:36.136Z,97.90
2023-04-23T03:47:04.286Z,97.80
2023-04-23T03:49:32.288Z,97.80
2023-04-23T03:52:00.518Z,97.90
2023-04-23T03:54:28.496Z,97.60
2023-04-23T03:56:57.761Z,97.90
2023-04-23T03:59:27.108Z,97.60
2023-04-23T04:01:55.125Z,97.60
2023-04-23T04:04:23.256Z,97.70
2023-04-23T04:06:51.422Z,97.90
2023-04-23T04:09:19.354Z,98.10
2023-04-23T04:11:47.398Z,98.40
2023-04-23T04:14:15.501Z,98.60
2023-04-23T04:16:44.941Z,98.70
2023-04-23T04:19:12.885Z,98.80
2023-04-23T04:21:40.866Z,98.90
2023-04-23T04:24:08.834Z,99.10
2023-04-23T04:26:37.359Z,99.20
2023-04-23T04:29:05.280Z,99.20
2023-04-23T04:31:33.363Z,99.20
2023-04-23T04:34:02.862Z,99.20
2023-04-23T04:36:31.888Z,99.20
2023-04-23T04:38:59.856Z,99.10
2023-04-23T04:41:27.872Z,99.10
2023-04-23T04:43:56.128Z,99.00
2023-04-23T04:46:26.122Z,99.10
2023-04-23T04:48:54.137Z,99.10
2023-04-23T04:51:23.743Z,99.20
2023-04-23T04:53:51.701Z,99.10
2023-04-23T04:56:19.664Z,99.00
2023-04-23T04:58:47.780Z,98.70
2023-04-23T05:01:16.023Z,99.00
2023-04-23T05:03:44.144Z,98.90
2023-04-23T05:06:12.255Z,98.90
2023-04-23T05:08:42.862Z,99.10
2023-04-23T05:11:10.806Z,99.10
2023-04-23T05:13:38.765Z,99.10
2023-04-23T05:16:06.950Z,98.90
2023-04-23T05:18:35.265Z,99.00
2023-04-23T05:21:03.562Z,98.90
2023-04-23T05:23:31.979Z,98.70
2023-04-23T05:26:03.586Z,98.90
2023-04-23T05:28:32.335Z,99.20
2023-04-23T05:31:00.603Z,99.60
2023-04-23T05:33:33.352Z,99.80
2023-04-23T05:36:04.722Z,99.90
2023-04-23T05:38:33.345Z,99.90
2023-04-23T05:41:02.762Z,99.90
2023-04-23T05:43:30.720Z,99.90
2023-04-23T05:45:58.641Z,99.90
2023-04-23T05:48:26.600Z,99.90
2023-04-23T05:50:54.612Z,99.90
2023-04-23T05:53:22.566Z,99.90
2023-04-23T05:55:50.546Z,99.90
2023-04-23T05:58:20.742Z,99.90
2023-04-23T06:00:49.946Z,99.90
2023-04-23T06:03:18.206Z,99.90
2023-04-23T06:05:46.268Z,99.90
2023-04-23T06:08:14.369Z,99.90
2023-04-23T06:10:42.389Z,99.90
2023-04-23T06:13:11.121Z,99.90
2023-04-23T06:15:40.508Z,99.90
2023-04-23T06:18:08.603Z,99.90
2023-04-23T06:20:36.573Z,99.90
2023-04-23T06:23:04.525Z,99.30
2023-04-23T06:25:32.484Z,98.90
2023-04-23T06:28:00.418Z,98.90
2023-04-23T06:30:28.377Z,99.10
2023-04-23T06:32:57.822Z,99.40
2023-04-23T06:35:25.770Z,99.20
2023-04-23T06:37:53.768Z,99.30
2023-04-23T06:40:21.692Z,99.30
2023-04-23T06:42:49.711Z,99.20
2023-04-23T06:45:17.693Z,98.70
2023-04-23T06:47:45.750Z,98.90
2023-04-23T06:50:15.178Z,98.90
2023-04-23T06:52:43.828Z,99.40
2023-04-23T06:55:12.364Z,99.40
2023-04-23T06:57:40.678Z,99.10
2023-04-23T07:00:10.892Z,98.90
2023-04-23T07:02:39.000Z,99.20
2023-04-23T07:05:07.464Z,99.10
2023-04-23T07:07:37.581Z,99.20
2023-04-23T07:10:06.178Z,99.00
2023-04-23T07:12:34.187Z,99.10
2023-04-23T07:15:02.141Z,98.60
2023-04-23T07:17:30.165Z,98.90
2023-04-23T07:19:58.270Z,99.00
2023-04-23T07:22:27.777Z,98.90
2023-04-23T07:24:58.732Z,98.80
2023-04-23T07:27:26.820Z,98.70
2023-04-23T07:29:54.932Z,98.30
2023-04-23T07:32:23.814Z,98.00
2023-04-23T07:34:52.419Z,98.00
2023-04-23T07:37:21.834Z,98.00
2023-04-23T07:39:49.898Z,98.00
2023-04-23T07:42:19.339Z,97.60
2023-04-23T07:44:47.290Z,97.60
2023-04-23T07:47:15.267Z,97.60
2023-04-23T07:49:43.722Z,97.40
2023-04-23T07:52:11.893Z,97.30
2023-04-23T07:54:39.889Z,97.30
2023-04-23T07:57:07.875Z,97.40
2023-04-23T07:59:39.401Z,97.40
2023-04-23T08:02:07.860Z,97.00
2023-04-23T08:04:36.235Z,97.00
2023-04-23T08:07:04.283Z,96.80
2023-04-23T08:09:32.223Z,96.40
2023-04-23T08:12:00.236Z,96.40
2023-04-23T08:14:28.321Z,96.30
2023-04-23T08:16:57.629Z,96.50
2023-04-23T08:19:31.981Z,96.30
2023-04-23T08:21:59.959Z,96.40
2023-04-23T08:24:28.030Z,96.30
2023-04-23T08:26:57.585Z,96.20
2023-04-23T08:29:25.578Z,96.10
2023-04-23T08:31:53.768Z,96.00
2023-04-23T08:34:23.088Z,95.30
2023-04-23T08:36:51.032Z,95.20
2023-04-23T08:39:18.948Z,94.80
2023-04-23T08:41:55.405Z,94.30
2023-04-23T08:44:24.819Z,94.10
2023-04-23T08:46:55.312Z,93.70
2023-04-23T08:49:24.912Z,94.10
2023-04-23T08:51:54.618Z,94.00
2023-04-23T08:54:26.820Z,94.00
2023-04-23T08:56:57.563Z,94.10
2023-04-23T08:59:26.644Z,93.60
2023-04-23T09:01:56.136Z,93.50
2023-04-23T09:04:26.169Z,93.30
2023-04-23T09:06:54.230Z,93.40
2023-04-23T09:09:24.625Z,93.20
2023-04-23T09:11:54.742Z,92.80
2023-04-23T09:14:25.165Z,92.90
2023-04-23T09:16:53.500Z,93.00
2023-04-23T09:19:21.580Z,93.30
2023-04-23T09:21:51.914Z,93.40
2023-04-23T09:24:19.889Z,93.30
2023-04-23T09:26:49.312Z,93.10
2023-04-23T09:29:19.238Z,93.00
2023-04-23T09:31:49.554Z,93.10
2023-04-23T09:34:18.232Z,93.10
2023-04-23T09:36:46.813Z,92.90
2023-04-23T09:39:18.164Z,92.90
2023-04-23T09:41:46.874Z,92.80
2023-04-23T09:44:19.193Z,92.90
2023-04-23T09:46:47.165Z,92.80
2023-04-23T09:49:15.263Z,92.70
2023-04-23T09:51:44.668Z,92.90
2023-04-23T09:54:16.363Z,93.00
2023-04-23T09:56:44.969Z,92.90
2023-04-23T09:59:32.595Z,92.90
2023-04-23T10:02:09.695Z,93.10
2023-04-23T10:04:39.098Z,92.70
2023-04-23T10:07:18.065Z,92.40
2023-04-23T10:09:49.388Z,92.60
2023-04-23T10:12:36.545Z,92.00
2023-04-23T10:15:08.459Z,91.70
2023-04-23T10:17:37.135Z,91.70
2023-04-23T10:20:06.952Z,91.90
2023-04-23T10:22:35.932Z,91.80
2023-04-23T10:25:11.271Z,92.10
2023-04-23T10:27:52.122Z,91.70
2023-04-23T10:30:22.664Z,91.80
2023-04-23T10:32:51.947Z,91.40
2023-04-23T10:35:20.094Z,90.70
2023-04-23T10:37:49.671Z,90.00
2023-04-23T10:40:22.969Z,88.00
2023-04-23T10:42:51.573Z,86.60
2023-04-23T10:45:24.739Z,86.50
2023-04-23T10:47:55.095Z,86.60
2023-04-23T10:50:25.286Z,85.70
2023-04-23T10:52:54.619Z,83.00
2023-04-23T10:55:25.936Z,83.80
2023-04-23T10:58:02.935Z,84.50
2023-04-23T11:00:44.129Z,82.70
2023-04-23T11:03:42.477Z,83.90
2023-04-23T11:06:15.769Z,82.70
2023-04-23T11:08:54.884Z,82.70
2023-04-23T11:11:41.076Z,82.70
2023-04-23T11:14:15.106Z,83.20
2023-04-23T11:16:43.185Z,83.00
2023-04-23T11:19:12.715Z,82.40
2023-04-23T11:22:01.163Z,81.10
2023-04-23T11:24:30.852Z,79.90
2023-04-23T11:27:01.320Z,80.60
2023-04-23T11:29:29.794Z,80.40
2023-04-23T11:32:02.372Z,79.90
2023-04-23T11:34:31.709Z,78.50
2023-04-23T11:37:01.404Z,78.50
2023-04-23T11:39:29.399Z,79.70
2023-04-23T11:42:02.963Z,78.10
2023-04-23T11:44:31.715Z,77.30
2023-04-23T11:47:02.148Z,77.90
2023-04-23T11:49:30.147Z,78.00
2023-04-23T11:52:00.909Z,78.00
2023-04-23T11:54:29.564Z,77.60
2023-04-23T11:56:59.813Z,78.20
2023-04-23T11:59:28.012Z,79.10
2023-04-23T12:01:57.548Z,79.40
2023-04-23T12:04:27.414Z,79.90
2023-04-23T12:06:56.859Z,78.70
2023-04-23T12:09:26.363Z,77.30
2023-04-23T12:11:54.760Z,77.10
2023-04-23T12:14:28.873Z,78.40
2023-04-23T12:16:58.351Z,78.00
2023-04-23T12:19:29.391Z,79.20
2023-04-23T12:21:59.416Z,79.40
2023-04-23T12:24:29.548Z,79.40
2023-04-23T12:27:00.551Z,76.20
2023-04-23T12:29:31.856Z,76.20
2023-04-23T12:32:03.314Z,79.80
2023-04-23T12:34:31.249Z,80.30
2023-04-23T12:36:59.260Z,79.90
2023-04-23T12:39:30.408Z,79.70
2023-04-23T12:42:01.614Z,80.00
2023-04-23T12:44:31.025Z,78.50
2023-04-23T12:47:01.093Z,79.70
2023-04-23T12:49:30.061Z,78.40
2023-04-23T12:52:01.268Z,78.80
2023-04-23T12:54:31.283Z,78.00
2023-04-23T12:56:59.891Z,78.20
2023-04-23T12:59:28.015Z,78.50
2023-04-23T13:01:57.445Z,78.90
2023-04-23T13:04:25.423Z,78.10
2023-04-23T13:06:53.470Z,77.80
2023-04-23T13:09:21.917Z,78.60
2023-04-23T13:11:49.863Z,77.40
2023-04-23T13:14:18.411Z,75.30
2023-04-23T13:16:46.497Z,75.90
2023-04-23T13:19:17.182Z,76.40
2023-04-23T13:21:45.604Z,75.60
2023-04-23T13:24:13.552Z,73.50
2023-04-23T13:26:41.651Z,73.50
2023-04-23T13:29:09.595Z,73.30
2023-04-23T13:31:37.579Z,74.40
2023-04-23T13:34:05.612Z,73.90
2023-04-23T13:36:35.033Z,75.00
2023-04-23T13:39:03.012Z,75.20
2023-04-23T13:41:30.978Z,76.40
2023-04-23T13:43:58.943Z,76.70
2023-04-23T13:46:27.139Z,77.90
2023-04-23T13:48:55.223Z,79.00
2023-04-23T13:51:34.752Z,79.10
2023-04-23T13:54:05.581Z,79.90
2023-04-23T13:56:33.768Z,79.80
2023-04-23T14:01:35.136Z,79.40
2023-04-23T14:04:04.681Z,79.20
2023-04-23T14:06:32.758Z,80.50
2023-04-23T14:09:00.722Z,82.80
2023-04-23T14:11:30.137Z,83.50
2023-04-23T14:13:58.390Z,82.20
2023-04-23T14:16:26.352Z,82.50
2023-04-23T14:18:54.339Z,82.70
2023-04-23T14:21:22.970Z,82.00
2023-04-23T14:23:56.207Z,80.00
2023-04-23T14:26:47.238Z,79.90
2023-04-23T14:29:25.710Z,80.80
2023-04-23T14:31:53.785Z,80.70
2023-04-23T14:34:22.246Z,80.90
2023-04-23T14:36:52.766Z,80.90
2023-04-23T14:39:21.018Z,81.90
2023-04-23T14:41:50.342Z,82.40
2023-04-23T14:44:18.501Z,83.20
2023-04-23T14:46:46.458Z,83.00
2023-04-23T14:49:14.446Z,82.10
2023-04-23T14:51:42.665Z,81.70
2023-04-23T14:54:10.834Z,80.20
2023-04-23T14:56:38.805Z,79.30
2023-04-23T14:59:08.089Z,78.70
2023-04-23T15:01:38.264Z,76.30
2023-04-23T15:04:06.495Z,74.80
2023-04-23T15:06:34.500Z,73.10
2023-04-23T15:09:02.546Z,72.50
2023-04-23T15:11:30.547Z,72.60
2023-04-23T15:14:04.554Z,72.30
2023-04-23T15:16:48.094Z,72.20
2023-04-23T15:19:18.515Z,69.90
2023-04-23T15:21:47.080Z,70.20
2023-04-23T15:24:15.557Z,70.90
2023-04-23T15:26:45.812Z,71.80
2023-04-23T15:29:14.482Z,71.50
2023-04-23T15:31:43.893Z,73.10
2023-04-23T15:34:12.309Z,73.80
2023-04-23T15:36:40.421Z,74.40
2023-04-23T15:39:09.175Z,74.70
2023-04-23T15:41:40.129Z,75.40
2023-04-23T15:44:12.017Z,75.20
2023-04-23T15:46:40.686Z,75.10
2023-04-23T15:49:10.229Z,75.60
2023-04-23T15:51:38.325Z,75.70
2023-04-23T15:54:08.633Z,76.00
2023-04-23T15:56:37.279Z,75.50
2023-04-23T15:59:05.420Z,75.40
2023-04-23T16:01:33.660Z,74.90
2023-04-23T16:06:33.920Z,74.70
2023-04-23T16:09:02.448Z,74.10
2023-04-23T16:11:30.443Z,73.90
2023-04-23T16:13:58.424Z,74.30
2023-04-23T16:16:29.041Z,75.00
2023-04-23T16:18:57.694Z,74.60
2023-04-23T16:21:25.868Z,74.80
2023-04-23T16:23:55.191Z,75.80
2023-04-23T16:26:23.284Z,75.60
2023-04-23T16:29:05.647Z,75.10
2023-04-23T16:31:34.316Z,76.20
2023-04-23T16:34:02.333Z,75.40
2023-04-23T16:36:32.019Z,75.60
2023-04-23T16:39:01.326Z,75.80
2023-04-23T16:41:29.379Z,76.40
2023-04-23T16:43:57.317Z,76.50
2023-04-23T16:46:26.281Z,77.10
2023-04-23T16:48:54.281Z,77.80
2023-04-23T16:51:22.214Z,77.50
2023-04-23T16:53:50.443Z,77.60
2023-04-23T16:56:19.827Z,77.70
2023-04-23T16:58:47.914Z,77.80
2023-04-23T17:01:16.553Z,77.40
2023-04-23T17:03:44.889Z,77.20
2023-04-23T17:06:21.705Z,77.10
2023-04-23T17:08:49.668Z,77.10
2023-04-23T17:11:19.026Z,77.60
2023-04-23T17:13:47.054Z,78.60
2023-04-23T17:16:15.071Z,79.40
2023-04-23T17:18:43.074Z,80.30
2023-04-23T17:21:11.517Z,80.00
2023-04-23T17:23:39.464Z,80.10
2023-04-23T17:26:07.663Z,79.90
2023-04-23T17:28:37.054Z,80.30
2023-04-23T17:31:05.044Z,78.90
2023-04-23T17:33:33.076Z,80.10
2023-04-23T17:36:01.158Z,81.20
2023-04-23T17:38:29.415Z,81.60
2023-04-23T17:40:59.936Z,81.80
2023-04-23T17:43:31.640Z,81.90
2023-04-23T17:46:01.041Z,83.50
2023-04-23T17:48:29.226Z,83.60
2023-04-23T17:50:57.204Z,83.90
2023-04-23T17:53:25.165Z,82.80
2023-04-23T17:55:53.858Z,83.40
2023-04-23T17:58:22.005Z,83.60
2023-04-23T18:00:50.279Z,83.60
2023-04-23T18:03:21.929Z,84.40
2023-04-23T18:05:50.214Z,84.70
2023-04-23T18:08:19.597Z,85.00
2023-04-23T18:10:47.577Z,85.00
2023-04-23T18:13:15.814Z,84.90
2023-04-23T18:15:45.774Z,85.10
2023-04-23T18:18:13.701Z,84.20
2023-04-23T18:20:43.958Z,83.10
2023-04-23T18:23:12.865Z,83.10
2023-04-23T18:25:41.816Z,83.80
2023-04-23T18:28:09.817Z,85.30
2023-04-23T18:30:38.724Z,85.10
2023-04-23T18:33:12.706Z,85.70
2023-04-23T18:35:43.966Z,85.90
2023-04-23T18:38:12.680Z,86.70
2023-04-23T18:40:40.693Z,87.10
2023-04-23T18:43:08.645Z,87.20
2023-04-23T18:45:36.837Z,87.50
2023-04-23T18:48:22.169Z,87.10
2023-04-23T18:50:51.692Z,87.60
2023-04-23T18:53:21.658Z,88.20
2023-04-23T18:55:50.218Z,88.40
2023-04-23T18:58:18.161Z,88.50
2023-04-23T19:00:46.147Z,88.80
2023-04-23T19:03:25.866Z,88.80
2023-04-23T19:05:56.889Z,88.50
2023-04-23T19:08:28.727Z,88.60
2023-04-23T19:10:57.302Z,88.70
2023-04-23T19:13:25.371Z,88.40
2023-04-23T19:15:53.479Z,89.30
2023-04-23T19:18:21.705Z,89.70
2023-04-23T19:20:49.668Z,89.90
2023-04-23T19:23:19.013Z,90.10
2023-04-23T19:25:46.978Z,90.00
2023-04-23T19:28:15.014Z,90.00
2023-04-23T19:30:42.970Z,90.00
2023-04-23T19:33:11.828Z,90.10
2023-04-23T19:35:40.473Z,90.10
2023-04-23T19:38:08.723Z,90.30
2023-04-23T19:40:38.160Z,90.30
2023-04-23T19:43:06.108Z,90.30
2023-04-23T19:45:34.109Z,90.50
2023-04-23T19:48:04.545Z,90.90
2023-04-23T19:50:32.749Z,90.80
2023-04-23T19:53:00.804Z,90.90
2023-04-23T19:55:28.892Z,91.10
2023-04-23T19:57:58.596Z,91.20
2023-04-23T20:00:30.074Z,91.10
2023-04-23T20:02:58.287Z,91.20
2023-04-23T20:05:27.916Z,91.30
2023-04-23T20:07:56.058Z,91.30
2023-04-23T20:10:29.075Z,91.30
2023-04-23T20:12:59.584Z,91.30
2023-04-23T20:15:28.361Z,91.50
2023-04-23T20:17:56.477Z,91.50
2023-04-23T20:20:25.801Z,91.60
2023-04-23T20:22:53.768Z,91.80
2023-04-23T20:25:25.587Z,91.90
2023-04-23T20:27:56.949Z,92.00
2023-04-23T20:30:26.515Z,91.80
2023-04-23T20:32:54.551Z,92.10
2023-04-23T20:35:22.579Z,92.00
2023-04-23T20:37:50.586Z,91.90
2023-04-23T20:40:19.019Z,92.10
2023-04-23T20:42:51.460Z,92.30
2023-04-23T20:45:20.641Z,92.30
2023-04-23T20:47:51.336Z,92.90
2023-04-23T20:50:19.393Z,92.60
2023-04-23T20:52:47.352Z,92.50
2023-04-23T20:55:15.368Z,92.60
2023-04-23T20:57:43.529Z,92.80
2023-04-23T21:00:12.832Z,92.90
2023-04-23T21:02:41.272Z,92.80
2023-04-23T21:05:13.186Z,92.80
2023-04-23T21:07:41.282Z,92.60
2023-04-23T21:10:09.681Z,92.60
2023-04-23T21:12:37.974Z,92.90
2023-04-23T21:15:06.827Z,92.90
2023-04-23T21:17:34.832Z,93.10
2023-04-23T21:20:02.872Z,93.50
2023-04-23T21:22:32.521Z,93.60
2023-04-23T21:25:00.498Z,93.50
2023-04-23T21:27:28.579Z,93.40
2023-04-23T21:29:57.564Z,93.30
2023-04-23T21:32:25.739Z,93.20
2023-04-23T21:34:53.742Z,93.20
2023-04-23T21:37:21.885Z,93.30
2023-04-23T21:39:51.189Z,93.30
2023-04-23T21:42:19.166Z,93.20
2023-04-23T21:44:47.141Z,93.40
2023-04-23T21:47:15.139Z,93.30
2023-04-23T21:49:43.354Z,93.40
2023-04-23T21:52:11.735Z,93.60
2023-04-23T21:54:39.700Z,94.00
2023-04-23T21:57:09.112Z,94.50
2023-04-23T21:59:37.232Z,94.60
2023-04-23T22:02:05.278Z,94.60
2023-04-23T22:04:33.863Z,94.50
2023-04-23T22:07:03.422Z,94.50
2023-04-23T22:09:31.401Z,94.50
2023-04-23T22:12:02.336Z,94.70
2023-04-23T22:14:32.367Z,94.80
2023-04-23T22:17:02.028Z,95.00
2023-04-23T22:19:31.212Z,95.50
2023-04-23T22:21:59.375Z,96.40
2023-04-23T22:24:27.380Z,96.80
2023-04-23T22:26:55.493Z,97.40
2023-04-23T22:29:23.442Z,98.10
2023-04-23T22:31:52.802Z,98.60
2023-04-23T22:34:20.894Z,99.10
2023-04-23T22:36:48.918Z,99.60
2023-04-23T22:39:17.067Z,99.90
2023-04-23T22:41:45.048Z,99.90
2023-04-23T22:44:12.985Z,99.90
2023-04-23T22:46:41.373Z,99.90
2023-04-23T22:49:14.135Z,99.90
2023-04-23T22:51:42.102Z,99.90
2023-04-23T22:54:10.072Z,99.90
2023-04-23T22:56:38.353Z,99.90
2023-04-23T22:59:06.438Z,99.90
2023-04-23T23:01:34.538Z,99.90
2023-04-23T23:04:02.596Z,99.90
2023-04-23T23:06:32.401Z,99.90
2023-04-23T23:09:00.353Z,99.90
2023-04-23T23:11:28.773Z,99.90
2023-04-23T23:13:57.268Z,99.90
2023-04-23T23:16:25.584Z,99.90
2023-04-23T23:18:53.991Z,99.90
2023-04-23T23:21:22.001Z,99.90
2023-04-23T23:23:51.512Z,99.90
2023-04-23T23:26:20.042Z,99.90
2023-04-23T23:28:48.053Z,99.90
2023-04-23T23:31:16.220Z,99.90
2023-04-23T23:33:44.275Z,99.90
2023-04-23T23:36:12.240Z,99.90
2023-04-23T23:38:40.197Z,99.90
2023-04-23T23:41:09.510Z,99.90
2023-04-23T23:43:37.526Z,99.90
2023-04-23T23:46:05.558Z,99.90
2023-04-23T23:48:33.541Z,99.90
2023-04-23T23:51:01.520Z,99.90
2023-04-23T23:53:29.451Z,99.90
2023-04-23T23:55:57.421Z,99.90
2023-04-23T23:58:26.893Z,99.90
